sensor_id;sensor_type;location;lat;lon;timestamp;P1;durP1;ratioP1;P2;durP2;ratioP2
22439;SDS011;11387;51.612;7.210;2022-07-31T00:00:10;10.35;;;2.17;;
22439;SDS011;11387;51.612;7.210;2022-07-31T00:03:13;5.13;;;2.28;;
22439;SDS011;11387;51.612;7.210;2022-07-31T00:06:17;3.92;;;2.30;;
22439;SDS011;11387;51.612;7.210;2022-07-31T00:09:20;7.10;;;2.63;;
22439;SDS011;11387;51.612;7.210;2022-07-31T00:12:43;8.55;;;3.22;;
22439;SDS011;11387;51.612;7.210;2022-07-31T00:15:46;6.30;;;2.72;;
22439;SDS011;11387;51.612;7.210;2022-07-31T00:18:48;7.95;;;2.22;;
22439;SDS011;11387;51.612;7.210;2022-07-31T00:21:53;5.75;;;2.80;;
22439;SDS011;11387;51.612;7.210;2022-07-31T00:24:55;4.80;;;2.30;;
22439;SDS011;11387;51.612;7.210;2022-07-31T00:27:58;4.80;;;2.33;;
22439;SDS011;11387;51.612;7.210;2022-07-31T00:31:01;4.47;;;2.33;;
22439;SDS011;11387;51.612;7.210;2022-07-31T00:34:04;3.28;;;2.33;;
22439;SDS011;11387;51.612;7.210;2022-07-31T00:37:08;6.28;;;2.33;;
22439;SDS011;11387;51.612;7.210;2022-07-31T00:40:14;5.78;;;2.38;;
22439;SDS011;11387;51.612;7.210;2022-07-31T00:43:17;4.30;;;2.13;;
22439;SDS011;11387;51.612;7.210;2022-07-31T00:46:20;4.43;;;2.30;;
22439;SDS011;11387;51.612;7.210;2022-07-31T00:49:23;5.63;;;2.80;;
22439;SDS011;11387;51.612;7.210;2022-07-31T00:52:39;10.47;;;5.83;;
22439;SDS011;11387;51.612;7.210;2022-07-31T00:55:41;8.43;;;3.90;;
22439;SDS011;11387;51.612;7.210;2022-07-31T00:58:52;11.70;;;5.95;;
22439;SDS011;11387;51.612;7.210;2022-07-31T01:01:56;4.27;;;2.00;;
22439;SDS011;11387;51.612;7.210;2022-07-31T01:04:59;5.38;;;2.20;;
22439;SDS011;11387;51.612;7.210;2022-07-31T01:08:03;10.73;;;2.45;;
22439;SDS011;11387;51.612;7.210;2022-07-31T01:11:07;4.85;;;2.95;;
22439;SDS011;11387;51.612;7.210;2022-07-31T01:14:12;12.13;;;5.65;;
22439;SDS011;11387;51.612;7.210;2022-07-31T01:17:16;7.60;;;3.22;;
22439;SDS011;11387;51.612;7.210;2022-07-31T01:20:25;9.98;;;3.90;;
22439;SDS011;11387;51.612;7.210;2022-07-31T01:23:43;7.40;;;2.40;;
22439;SDS011;11387;51.612;7.210;2022-07-31T01:27:25;7.40;;;3.45;;
22439;SDS011;11387;51.612;7.210;2022-07-31T01:30:30;7.10;;;2.50;;
22439;SDS011;11387;51.612;7.210;2022-07-31T01:33:38;3.30;;;2.00;;
22439;SDS011;11387;51.612;7.210;2022-07-31T01:36:43;2.83;;;2.10;;
22439;SDS011;11387;51.612;7.210;2022-07-31T01:39:51;3.47;;;2.05;;
22439;SDS011;11387;51.612;7.210;2022-07-31T01:42:55;12.10;;;3.08;;
22439;SDS011;11387;51.612;7.210;2022-07-31T01:45:59;5.50;;;2.22;;
22439;SDS011;11387;51.612;7.210;2022-07-31T01:49:04;6.65;;;2.17;;
22439;SDS011;11387;51.612;7.210;2022-07-31T01:52:08;4.93;;;2.28;;
22439;SDS011;11387;51.612;7.210;2022-07-31T01:55:11;7.22;;;2.10;;
22439;SDS011;11387;51.612;7.210;2022-07-31T01:58:19;5.78;;;2.00;;
22439;SDS011;11387;51.612;7.210;2022-07-31T02:01:24;3.28;;;1.92;;
22439;SDS011;11387;51.612;7.210;2022-07-31T02:04:29;6.90;;;2.58;;
22439;SDS011;11387;51.612;7.210;2022-07-31T02:07:34;3.85;;;1.83;;
22439;SDS011;11387;51.612;7.210;2022-07-31T02:10:39;5.03;;;1.92;;
22439;SDS011;11387;51.612;7.210;2022-07-31T02:13:42;5.70;;;2.70;;
22439;SDS011;11387;51.612;7.210;2022-07-31T02:16:47;7.28;;;2.17;;
22439;SDS011;11387;51.612;7.210;2022-07-31T02:19:56;9.27;;;2.42;;
22439;SDS011;11387;51.612;7.210;2022-07-31T02:23:01;4.90;;;1.98;;
22439;SDS011;11387;51.612;7.210;2022-07-31T02:26:04;3.88;;;2.03;;
22439;SDS011;11387;51.612;7.210;2022-07-31T02:29:08;3.75;;;2.25;;
22439;SDS011;11387;51.612;7.210;2022-07-31T02:32:23;5.13;;;2.50;;
22439;SDS011;11387;51.612;7.210;2022-07-31T02:35:26;4.15;;;2.22;;
22439;SDS011;11387;51.612;7.210;2022-07-31T02:38:31;8.20;;;2.88;;
22439;SDS011;11387;51.612;7.210;2022-07-31T02:41:35;9.55;;;2.38;;
22439;SDS011;11387;51.612;7.210;2022-07-31T02:44:42;5.80;;;2.80;;
22439;SDS011;11387;51.612;7.210;2022-07-31T02:47:48;7.00;;;2.72;;
22439;SDS011;11387;51.612;7.210;2022-07-31T02:50:52;4.72;;;2.40;;
22439;SDS011;11387;51.612;7.210;2022-07-31T02:53:55;6.32;;;2.10;;
22439;SDS011;11387;51.612;7.210;2022-07-31T02:57:00;6.60;;;2.42;;
22439;SDS011;11387;51.612;7.210;2022-07-31T03:00:12;4.57;;;2.10;;
22439;SDS011;11387;51.612;7.210;2022-07-31T03:03:17;5.35;;;2.10;;
22439;SDS011;11387;51.612;7.210;2022-07-31T03:06:20;5.70;;;2.83;;
22439;SDS011;11387;51.612;7.210;2022-07-31T03:09:23;7.43;;;3.03;;
22439;SDS011;11387;51.612;7.210;2022-07-31T03:12:38;5.45;;;3.03;;
22439;SDS011;11387;51.612;7.210;2022-07-31T03:15:42;9.23;;;3.58;;
22439;SDS011;11387;51.612;7.210;2022-07-31T03:18:53;8.65;;;3.15;;
22439;SDS011;11387;51.612;7.210;2022-07-31T03:21:56;4.75;;;2.45;;
22439;SDS011;11387;51.612;7.210;2022-07-31T03:25:02;9.50;;;4.43;;
22439;SDS011;11387;51.612;7.210;2022-07-31T03:28:05;5.20;;;2.22;;
22439;SDS011;11387;51.612;7.210;2022-07-31T03:31:07;6.63;;;2.58;;
22439;SDS011;11387;51.612;7.210;2022-07-31T03:34:12;5.57;;;2.67;;
22439;SDS011;11387;51.612;7.210;2022-07-31T03:37:14;5.63;;;2.60;;
22439;SDS011;11387;51.612;7.210;2022-07-31T03:40:17;4.65;;;2.10;;
22439;SDS011;11387;51.612;7.210;2022-07-31T03:43:20;5.35;;;3.20;;
22439;SDS011;11387;51.612;7.210;2022-07-31T03:46:23;5.05;;;2.72;;
22439;SDS011;11387;51.612;7.210;2022-07-31T03:49:28;5.40;;;2.67;;
22439;SDS011;11387;51.612;7.210;2022-07-31T03:55:35;6.80;;;2.70;;
22439;SDS011;11387;51.612;7.210;2022-07-31T03:58:38;7.88;;;2.92;;
22439;SDS011;11387;51.612;7.210;2022-07-31T04:01:41;4.32;;;2.67;;
22439;SDS011;11387;51.612;7.210;2022-07-31T04:05:18;4.13;;;2.65;;
22439;SDS011;11387;51.612;7.210;2022-07-31T04:08:21;3.55;;;2.33;;
22439;SDS011;11387;51.612;7.210;2022-07-31T04:11:24;7.97;;;2.85;;
22439;SDS011;11387;51.612;7.210;2022-07-31T04:14:27;4.82;;;3.05;;
22439;SDS011;11387;51.612;7.210;2022-07-31T04:17:29;4.55;;;2.78;;
22439;SDS011;11387;51.612;7.210;2022-07-31T04:20:36;9.35;;;2.85;;
22439;SDS011;11387;51.612;7.210;2022-07-31T04:23:39;5.70;;;2.97;;
22439;SDS011;11387;51.612;7.210;2022-07-31T04:27:01;8.40;;;4.75;;
22439;SDS011;11387;51.612;7.210;2022-07-31T04:30:15;5.40;;;2.95;;
22439;SDS011;11387;51.612;7.210;2022-07-31T04:36:24;11.00;;;3.25;;
22439;SDS011;11387;51.612;7.210;2022-07-31T04:39:32;5.47;;;2.90;;
22439;SDS011;11387;51.612;7.210;2022-07-31T04:42:35;7.38;;;2.65;;
22439;SDS011;11387;51.612;7.210;2022-07-31T04:45:38;5.35;;;2.75;;
22439;SDS011;11387;51.612;7.210;2022-07-31T04:48:41;4.20;;;2.92;;
22439;SDS011;11387;51.612;7.210;2022-07-31T04:51:47;5.43;;;3.05;;
22439;SDS011;11387;51.612;7.210;2022-07-31T04:54:49;12.38;;;6.03;;
22439;SDS011;11387;51.612;7.210;2022-07-31T04:57:52;4.97;;;2.88;;
22439;SDS011;11387;51.612;7.210;2022-07-31T05:00:55;5.05;;;3.58;;
22439;SDS011;11387;51.612;7.210;2022-07-31T05:03:57;7.93;;;3.40;;
22439;SDS011;11387;51.612;7.210;2022-07-31T05:07:02;7.45;;;3.72;;
22439;SDS011;11387;51.612;7.210;2022-07-31T05:10:06;6.88;;;3.60;;
22439;SDS011;11387;51.612;7.210;2022-07-31T05:13:09;3.77;;;3.00;;
22439;SDS011;11387;51.612;7.210;2022-07-31T05:16:12;4.65;;;3.20;;
22439;SDS011;11387;51.612;7.210;2022-07-31T05:19:15;7.15;;;3.20;;
22439;SDS011;11387;51.612;7.210;2022-07-31T05:22:37;4.93;;;3.05;;
22439;SDS011;11387;51.612;7.210;2022-07-31T05:26:03;6.93;;;2.85;;
22439;SDS011;11387;51.612;7.210;2022-07-31T05:29:06;7.25;;;3.00;;
22439;SDS011;11387;51.612;7.210;2022-07-31T05:32:09;5.05;;;3.03;;
22439;SDS011;11387;51.612;7.210;2022-07-31T05:35:12;8.90;;;3.15;;
22439;SDS011;11387;51.612;7.210;2022-07-31T05:38:16;5.63;;;2.70;;
22439;SDS011;11387;51.612;7.210;2022-07-31T05:41:37;9.20;;;3.55;;
22439;SDS011;11387;51.612;7.210;2022-07-31T05:45:01;10.10;;;3.30;;
22439;SDS011;11387;51.612;7.210;2022-07-31T05:48:04;6.95;;;2.90;;
22439;SDS011;11387;51.612;7.210;2022-07-31T05:51:07;6.72;;;2.95;;
22439;SDS011;11387;51.612;7.210;2022-07-31T05:54:11;7.50;;;3.33;;
22439;SDS011;11387;51.612;7.210;2022-07-31T05:57:32;7.82;;;3.42;;
22439;SDS011;11387;51.612;7.210;2022-07-31T06:00:37;6.72;;;4.00;;
22439;SDS011;11387;51.612;7.210;2022-07-31T06:03:40;7.32;;;2.75;;
22439;SDS011;11387;51.612;7.210;2022-07-31T06:06:54;5.55;;;3.30;;
22439;SDS011;11387;51.612;7.210;2022-07-31T06:10:01;5.95;;;3.20;;
22439;SDS011;11387;51.612;7.210;2022-07-31T06:13:04;8.05;;;3.85;;
22439;SDS011;11387;51.612;7.210;2022-07-31T06:16:10;7.93;;;3.28;;
22439;SDS011;11387;51.612;7.210;2022-07-31T06:19:12;8.65;;;3.90;;
22439;SDS011;11387;51.612;7.210;2022-07-31T06:22:15;7.72;;;4.15;;
22439;SDS011;11387;51.612;7.210;2022-07-31T06:25:19;10.88;;;4.18;;
22439;SDS011;11387;51.612;7.210;2022-07-31T06:28:23;11.10;;;4.20;;
22439;SDS011;11387;51.612;7.210;2022-07-31T06:31:46;9.18;;;4.38;;
22439;SDS011;11387;51.612;7.210;2022-07-31T06:34:49;7.25;;;4.55;;
22439;SDS011;11387;51.612;7.210;2022-07-31T06:37:51;8.73;;;4.28;;
22439;SDS011;11387;51.612;7.210;2022-07-31T06:41:05;8.23;;;4.78;;
22439;SDS011;11387;51.612;7.210;2022-07-31T06:44:13;8.50;;;4.82;;
22439;SDS011;11387;51.612;7.210;2022-07-31T06:47:36;11.43;;;5.75;;
22439;SDS011;11387;51.612;7.210;2022-07-31T06:50:50;8.35;;;5.38;;
22439;SDS011;11387;51.612;7.210;2022-07-31T06:54:20;7.22;;;4.30;;
22439;SDS011;11387;51.612;7.210;2022-07-31T06:57:29;8.70;;;5.40;;
22439;SDS011;11387;51.612;7.210;2022-07-31T07:00:32;11.93;;;6.20;;
22439;SDS011;11387;51.612;7.210;2022-07-31T07:03:35;14.98;;;6.20;;
22439;SDS011;11387;51.612;7.210;2022-07-31T07:06:40;11.98;;;6.05;;
22439;SDS011;11387;51.612;7.210;2022-07-31T07:09:42;12.32;;;5.20;;
22439;SDS011;11387;51.612;7.210;2022-07-31T07:12:51;10.25;;;6.13;;
22439;SDS011;11387;51.612;7.210;2022-07-31T07:15:54;13.45;;;6.40;;
22439;SDS011;11387;51.612;7.210;2022-07-31T07:19:00;15.13;;;6.65;;
22439;SDS011;11387;51.612;7.210;2022-07-31T07:22:02;9.02;;;6.55;;
22439;SDS011;11387;51.612;7.210;2022-07-31T07:25:06;12.50;;;5.95;;
22439;SDS011;11387;51.612;7.210;2022-07-31T07:28:12;11.27;;;5.38;;
22439;SDS011;11387;51.612;7.210;2022-07-31T07:31:32;9.88;;;6.03;;
22439;SDS011;11387;51.612;7.210;2022-07-31T07:34:35;9.30;;;5.97;;
22439;SDS011;11387;51.612;7.210;2022-07-31T07:37:44;13.88;;;6.82;;
22439;SDS011;11387;51.612;7.210;2022-07-31T07:40:47;10.20;;;5.70;;
22439;SDS011;11387;51.612;7.210;2022-07-31T07:43:52;11.53;;;6.80;;
22439;SDS011;11387;51.612;7.210;2022-07-31T07:46:58;14.15;;;6.10;;
22439;SDS011;11387;51.612;7.210;2022-07-31T07:50:02;10.98;;;6.20;;
22439;SDS011;11387;51.612;7.210;2022-07-31T07:53:23;13.57;;;6.63;;
22439;SDS011;11387;51.612;7.210;2022-07-31T07:56:49;10.02;;;5.90;;
22439;SDS011;11387;51.612;7.210;2022-07-31T08:00:14;11.93;;;6.30;;
22439;SDS011;11387;51.612;7.210;2022-07-31T08:03:17;9.30;;;5.40;;
22439;SDS011;11387;51.612;7.210;2022-07-31T08:06:40;12.50;;;5.18;;
22439;SDS011;11387;51.612;7.210;2022-07-31T08:09:43;9.60;;;4.70;;
22439;SDS011;11387;51.612;7.210;2022-07-31T08:13:08;8.52;;;4.15;;
22439;SDS011;11387;51.612;7.210;2022-07-31T08:16:35;8.35;;;4.18;;
22439;SDS011;11387;51.612;7.210;2022-07-31T08:19:39;7.63;;;3.42;;
22439;SDS011;11387;51.612;7.210;2022-07-31T08:22:42;7.53;;;3.47;;
22439;SDS011;11387;51.612;7.210;2022-07-31T08:25:45;4.22;;;3.10;;
22439;SDS011;11387;51.612;7.210;2022-07-31T08:28:52;4.88;;;3.13;;
22439;SDS011;11387;51.612;7.210;2022-07-31T08:31:59;8.95;;;2.63;;
22439;SDS011;11387;51.612;7.210;2022-07-31T08:35:28;6.93;;;2.83;;
22439;SDS011;11387;51.612;7.210;2022-07-31T08:38:30;5.20;;;2.88;;
22439;SDS011;11387;51.612;7.210;2022-07-31T08:41:56;5.50;;;2.50;;
22439;SDS011;11387;51.612;7.210;2022-07-31T08:44:59;3.72;;;2.35;;
22439;SDS011;11387;51.612;7.210;2022-07-31T08:48:07;5.15;;;2.30;;
22439;SDS011;11387;51.612;7.210;2022-07-31T08:51:18;7.18;;;3.20;;
22439;SDS011;11387;51.612;7.210;2022-07-31T08:54:40;5.90;;;2.55;;
22439;SDS011;11387;51.612;7.210;2022-07-31T08:57:45;3.20;;;2.10;;
22439;SDS011;11387;51.612;7.210;2022-07-31T09:00:48;6.93;;;2.55;;
22439;SDS011;11387;51.612;7.210;2022-07-31T09:03:52;4.70;;;2.00;;
22439;SDS011;11387;51.612;7.210;2022-07-31T09:06:56;4.75;;;1.90;;
22439;SDS011;11387;51.612;7.210;2022-07-31T09:10:00;4.75;;;2.20;;
22439;SDS011;11387;51.612;7.210;2022-07-31T09:13:11;4.90;;;2.42;;
22439;SDS011;11387;51.612;7.210;2022-07-31T09:16:13;2.97;;;1.85;;
22439;SDS011;11387;51.612;7.210;2022-07-31T09:19:18;5.00;;;2.20;;
22439;SDS011;11387;51.612;7.210;2022-07-31T09:23:03;4.95;;;2.08;;
22439;SDS011;11387;51.612;7.210;2022-07-31T09:26:08;3.85;;;2.60;;
22439;SDS011;11387;51.612;7.210;2022-07-31T09:29:11;4.55;;;2.53;;
22439;SDS011;11387;51.612;7.210;2022-07-31T09:32:15;6.15;;;2.97;;
22439;SDS011;11387;51.612;7.210;2022-07-31T09:35:34;5.40;;;3.85;;
22439;SDS011;11387;51.612;7.210;2022-07-31T09:38:42;5.20;;;3.53;;
22439;SDS011;11387;51.612;7.210;2022-07-31T09:42:03;11.48;;;3.80;;
22439;SDS011;11387;51.612;7.210;2022-07-31T09:45:28;6.40;;;3.92;;
22439;SDS011;11387;51.612;7.210;2022-07-31T09:48:31;4.55;;;3.42;;
22439;SDS011;11387;51.612;7.210;2022-07-31T09:51:40;7.07;;;4.13;;
22439;SDS011;11387;51.612;7.210;2022-07-31T09:54:46;12.50;;;4.82;;
22439;SDS011;11387;51.612;7.210;2022-07-31T09:58:01;6.35;;;3.83;;
22439;SDS011;11387;51.612;7.210;2022-07-31T10:01:11;5.88;;;3.70;;
22439;SDS011;11387;51.612;7.210;2022-07-31T10:04:15;5.20;;;3.75;;
22439;SDS011;11387;51.612;7.210;2022-07-31T10:07:20;4.07;;;3.67;;
22439;SDS011;11387;51.612;7.210;2022-07-31T10:10:49;7.35;;;3.85;;
22439;SDS011;11387;51.612;7.210;2022-07-31T10:14:12;5.90;;;3.90;;
22439;SDS011;11387;51.612;7.210;2022-07-31T10:17:18;4.03;;;3.38;;
22439;SDS011;11387;51.612;7.210;2022-07-31T10:20:43;7.00;;;3.17;;
22439;SDS011;11387;51.612;7.210;2022-07-31T10:24:13;6.78;;;3.10;;
22439;SDS011;11387;51.612;7.210;2022-07-31T10:27:16;6.60;;;3.92;;
22439;SDS011;11387;51.612;7.210;2022-07-31T10:30:26;5.53;;;3.78;;
22439;SDS011;11387;51.612;7.210;2022-07-31T10:33:32;5.72;;;3.05;;
22439;SDS011;11387;51.612;7.210;2022-07-31T10:37:06;4.90;;;3.17;;
22439;SDS011;11387;51.612;7.210;2022-07-31T10:40:39;3.33;;;3.03;;
22439;SDS011;11387;51.612;7.210;2022-07-31T10:43:45;9.35;;;2.95;;
22439;SDS011;11387;51.612;7.210;2022-07-31T10:47:10;6.03;;;3.17;;
22439;SDS011;11387;51.612;7.210;2022-07-31T10:50:30;5.18;;;3.35;;
22439;SDS011;11387;51.612;7.210;2022-07-31T10:53:37;4.30;;;2.97;;
22439;SDS011;11387;51.612;7.210;2022-07-31T10:57:21;4.55;;;2.58;;
22439;SDS011;11387;51.612;7.210;2022-07-31T11:00:42;4.80;;;2.85;;
22439;SDS011;11387;51.612;7.210;2022-07-31T11:04:08;3.58;;;2.63;;
22439;SDS011;11387;51.612;7.210;2022-07-31T11:07:27;6.32;;;2.45;;
22439;SDS011;11387;51.612;7.210;2022-07-31T11:10:49;5.57;;;2.60;;
22439;SDS011;11387;51.612;7.210;2022-07-31T11:14:12;4.80;;;2.40;;
22439;SDS011;11387;51.612;7.210;2022-07-31T11:17:34;4.18;;;2.40;;
22439;SDS011;11387;51.612;7.210;2022-07-31T11:21:06;5.13;;;3.10;;
22439;SDS011;11387;51.612;7.210;2022-07-31T11:24:29;7.25;;;3.72;;
22439;SDS011;11387;51.612;7.210;2022-07-31T11:27:32;4.25;;;2.75;;
22439;SDS011;11387;51.612;7.210;2022-07-31T11:30:46;4.20;;;2.40;;
22439;SDS011;11387;51.612;7.210;2022-07-31T11:33:49;9.90;;;2.85;;
22439;SDS011;11387;51.612;7.210;2022-07-31T11:36:52;6.80;;;2.70;;
22439;SDS011;11387;51.612;7.210;2022-07-31T11:39:55;5.03;;;2.65;;
22439;SDS011;11387;51.612;7.210;2022-07-31T11:42:58;5.50;;;2.55;;
22439;SDS011;11387;51.612;7.210;2022-07-31T11:46:24;3.85;;;2.40;;
22439;SDS011;11387;51.612;7.210;2022-07-31T11:49:27;6.00;;;2.80;;
22439;SDS011;11387;51.612;7.210;2022-07-31T11:52:49;5.07;;;3.20;;
22439;SDS011;11387;51.612;7.210;2022-07-31T11:55:53;4.97;;;2.88;;
22439;SDS011;11387;51.612;7.210;2022-07-31T11:58:57;8.15;;;2.97;;
22439;SDS011;11387;51.612;7.210;2022-07-31T12:02:03;5.80;;;3.13;;
22439;SDS011;11387;51.612;7.210;2022-07-31T12:05:06;3.85;;;2.83;;
22439;SDS011;11387;51.612;7.210;2022-07-31T12:08:09;4.90;;;2.80;;
22439;SDS011;11387;51.612;7.210;2022-07-31T12:11:13;7.00;;;2.70;;
22439;SDS011;11387;51.612;7.210;2022-07-31T12:14:25;4.95;;;2.90;;
22439;SDS011;11387;51.612;7.210;2022-07-31T12:17:29;5.47;;;2.92;;
22439;SDS011;11387;51.612;7.210;2022-07-31T12:20:33;5.85;;;2.90;;
22439;SDS011;11387;51.612;7.210;2022-07-31T12:23:38;3.97;;;2.70;;
22439;SDS011;11387;51.612;7.210;2022-07-31T12:26:43;4.20;;;3.05;;
22439;SDS011;11387;51.612;7.210;2022-07-31T12:29:50;4.40;;;2.63;;
22439;SDS011;11387;51.612;7.210;2022-07-31T12:33:02;6.75;;;3.03;;
22439;SDS011;11387;51.612;7.210;2022-07-31T12:36:10;8.23;;;3.00;;
22439;SDS011;11387;51.612;7.210;2022-07-31T12:39:13;5.15;;;2.63;;
22439;SDS011;11387;51.612;7.210;2022-07-31T12:42:19;7.68;;;2.70;;
22439;SDS011;11387;51.612;7.210;2022-07-31T12:45:32;8.35;;;3.10;;
22439;SDS011;11387;51.612;7.210;2022-07-31T12:48:36;5.90;;;3.33;;
22439;SDS011;11387;51.612;7.210;2022-07-31T12:51:46;7.30;;;3.33;;
22439;SDS011;11387;51.612;7.210;2022-07-31T12:54:48;8.63;;;3.45;;
22439;SDS011;11387;51.612;7.210;2022-07-31T12:57:51;8.75;;;4.20;;
22439;SDS011;11387;51.612;7.210;2022-07-31T13:00:54;12.23;;;3.10;;
22439;SDS011;11387;51.612;7.210;2022-07-31T13:03:58;7.43;;;2.80;;
22439;SDS011;11387;51.612;7.210;2022-07-31T13:07:03;7.97;;;3.08;;
22439;SDS011;11387;51.612;7.210;2022-07-31T13:10:07;7.10;;;3.17;;
22439;SDS011;11387;51.612;7.210;2022-07-31T13:13:22;4.90;;;3.17;;
22439;SDS011;11387;51.612;7.210;2022-07-31T13:16:26;5.32;;;3.03;;
22439;SDS011;11387;51.612;7.210;2022-07-31T13:19:30;4.95;;;2.60;;
22439;SDS011;11387;51.612;7.210;2022-07-31T13:22:32;7.22;;;2.63;;
22439;SDS011;11387;51.612;7.210;2022-07-31T13:25:35;5.32;;;2.30;;
22439;SDS011;11387;51.612;7.210;2022-07-31T13:28:38;5.32;;;2.40;;
22439;SDS011;11387;51.612;7.210;2022-07-31T13:31:41;7.45;;;3.05;;
22439;SDS011;11387;51.612;7.210;2022-07-31T13:34:45;4.20;;;2.75;;
22439;SDS011;11387;51.612;7.210;2022-07-31T13:38:07;5.15;;;2.17;;
22439;SDS011;11387;51.612;7.210;2022-07-31T13:41:10;3.88;;;2.70;;
22439;SDS011;11387;51.612;7.210;2022-07-31T13:44:24;9.73;;;3.27;;
22439;SDS011;11387;51.612;7.210;2022-07-31T13:47:26;4.63;;;2.60;;
22439;SDS011;11387;51.612;7.210;2022-07-31T13:50:50;7.93;;;2.90;;
22439;SDS011;11387;51.612;7.210;2022-07-31T13:53:53;4.75;;;2.92;;
22439;SDS011;11387;51.612;7.210;2022-07-31T13:56:59;5.22;;;2.83;;
22439;SDS011;11387;51.612;7.210;2022-07-31T14:00:01;5.88;;;2.40;;
22439;SDS011;11387;51.612;7.210;2022-07-31T14:03:05;3.37;;;2.50;;
22439;SDS011;11387;51.612;7.210;2022-07-31T14:06:09;4.50;;;2.67;;
22439;SDS011;11387;51.612;7.210;2022-07-31T14:09:11;4.85;;;2.75;;
22439;SDS011;11387;51.612;7.210;2022-07-31T14:12:14;4.93;;;3.65;;
22439;SDS011;11387;51.612;7.210;2022-07-31T14:15:16;5.20;;;3.15;;
22439;SDS011;11387;51.612;7.210;2022-07-31T14:18:19;4.22;;;2.78;;
22439;SDS011;11387;51.612;7.210;2022-07-31T14:21:23;4.60;;;2.58;;
22439;SDS011;11387;51.612;7.210;2022-07-31T14:24:27;6.32;;;3.50;;
22439;SDS011;11387;51.612;7.210;2022-07-31T14:27:30;4.43;;;2.70;;
22439;SDS011;11387;51.612;7.210;2022-07-31T14:30:32;4.45;;;2.70;;
22439;SDS011;11387;51.612;7.210;2022-07-31T14:33:35;3.80;;;2.67;;
22439;SDS011;11387;51.612;7.210;2022-07-31T14:36:39;5.80;;;2.95;;
22439;SDS011;11387;51.612;7.210;2022-07-31T14:39:41;4.05;;;2.90;;
22439;SDS011;11387;51.612;7.210;2022-07-31T14:42:44;4.05;;;2.80;;
22439;SDS011;11387;51.612;7.210;2022-07-31T14:45:47;4.88;;;2.80;;
22439;SDS011;11387;51.612;7.210;2022-07-31T14:48:52;7.60;;;3.38;;
22439;SDS011;11387;51.612;7.210;2022-07-31T14:51:56;4.68;;;3.58;;
22439;SDS011;11387;51.612;7.210;2022-07-31T14:54:59;6.97;;;4.00;;
22439;SDS011;11387;51.612;7.210;2022-07-31T14:58:01;5.90;;;3.90;;
22439;SDS011;11387;51.612;7.210;2022-07-31T15:01:04;6.45;;;4.40;;
22439;SDS011;11387;51.612;7.210;2022-07-31T15:04:06;10.90;;;4.50;;
22439;SDS011;11387;51.612;7.210;2022-07-31T15:07:10;7.05;;;4.10;;
22439;SDS011;11387;51.612;7.210;2022-07-31T15:10:33;7.00;;;3.45;;
22439;SDS011;11387;51.612;7.210;2022-07-31T15:13:36;5.18;;;3.30;;
22439;SDS011;11387;51.612;7.210;2022-07-31T15:16:39;5.20;;;3.40;;
22439;SDS011;11387;51.612;7.210;2022-07-31T15:19:50;4.68;;;3.58;;
22439;SDS011;11387;51.612;7.210;2022-07-31T15:22:54;6.57;;;3.60;;
22439;SDS011;11387;51.612;7.210;2022-07-31T15:25:58;3.90;;;3.47;;
22439;SDS011;11387;51.612;7.210;2022-07-31T15:29:00;5.80;;;3.22;;
22439;SDS011;11387;51.612;7.210;2022-07-31T15:32:03;5.88;;;3.20;;
22439;SDS011;11387;51.612;7.210;2022-07-31T15:35:07;5.60;;;2.80;;
22439;SDS011;11387;51.612;7.210;2022-07-31T15:38:11;3.95;;;3.03;;
22439;SDS011;11387;51.612;7.210;2022-07-31T15:41:14;4.25;;;2.95;;
22439;SDS011;11387;51.612;7.210;2022-07-31T15:44:19;5.00;;;3.03;;
22439;SDS011;11387;51.612;7.210;2022-07-31T15:47:22;6.18;;;3.28;;
22439;SDS011;11387;51.612;7.210;2022-07-31T15:50:25;8.50;;;4.35;;
22439;SDS011;11387;51.612;7.210;2022-07-31T15:53:28;12.68;;;4.07;;
22439;SDS011;11387;51.612;7.210;2022-07-31T15:56:39;18.20;;;5.97;;
22439;SDS011;11387;51.612;7.210;2022-07-31T15:59:42;9.32;;;4.65;;
22439;SDS011;11387;51.612;7.210;2022-07-31T16:02:45;9.18;;;4.72;;
22439;SDS011;11387;51.612;7.210;2022-07-31T16:05:47;6.32;;;5.20;;
22439;SDS011;11387;51.612;7.210;2022-07-31T16:08:57;5.97;;;4.40;;
22439;SDS011;11387;51.612;7.210;2022-07-31T16:12:00;6.65;;;5.07;;
22439;SDS011;11387;51.612;7.210;2022-07-31T16:15:05;11.85;;;5.38;;
22439;SDS011;11387;51.612;7.210;2022-07-31T16:18:09;9.52;;;6.20;;
22439;SDS011;11387;51.612;7.210;2022-07-31T16:21:18;11.73;;;7.13;;
22439;SDS011;11387;51.612;7.210;2022-07-31T16:24:22;10.05;;;7.30;;
22439;SDS011;11387;51.612;7.210;2022-07-31T16:27:25;11.15;;;6.88;;
22439;SDS011;11387;51.612;7.210;2022-07-31T16:30:28;9.25;;;6.13;;
22439;SDS011;11387;51.612;7.210;2022-07-31T16:33:30;13.40;;;7.75;;
22439;SDS011;11387;51.612;7.210;2022-07-31T16:36:33;11.52;;;6.95;;
22439;SDS011;11387;51.612;7.210;2022-07-31T16:39:37;8.32;;;4.70;;
22439;SDS011;11387;51.612;7.210;2022-07-31T16:42:39;6.15;;;4.47;;
22439;SDS011;11387;51.612;7.210;2022-07-31T16:45:42;6.05;;;4.15;;
22439;SDS011;11387;51.612;7.210;2022-07-31T16:48:45;6.68;;;5.90;;
22439;SDS011;11387;51.612;7.210;2022-07-31T16:51:48;8.95;;;5.03;;
22439;SDS011;11387;51.612;7.210;2022-07-31T16:54:52;8.52;;;3.92;;
22439;SDS011;11387;51.612;7.210;2022-07-31T16:57:55;5.97;;;4.32;;
22439;SDS011;11387;51.612;7.210;2022-07-31T17:00:57;7.82;;;4.45;;
22439;SDS011;11387;51.612;7.210;2022-07-31T17:04:00;9.18;;;6.13;;
22439;SDS011;11387;51.612;7.210;2022-07-31T17:07:04;8.98;;;5.78;;
22439;SDS011;11387;51.612;7.210;2022-07-31T17:10:09;13.07;;;5.45;;
22439;SDS011;11387;51.612;7.210;2022-07-31T17:13:12;8.48;;;5.50;;
22439;SDS011;11387;51.612;7.210;2022-07-31T17:16:15;10.82;;;5.82;;
22439;SDS011;11387;51.612;7.210;2022-07-31T17:19:18;9.50;;;6.70;;
22439;SDS011;11387;51.612;7.210;2022-07-31T17:22:41;10.30;;;6.78;;
22439;SDS011;11387;51.612;7.210;2022-07-31T17:25:45;9.35;;;5.78;;
22439;SDS011;11387;51.612;7.210;2022-07-31T17:28:49;9.15;;;5.05;;
22439;SDS011;11387;51.612;7.210;2022-07-31T17:31:52;8.95;;;4.40;;
22439;SDS011;11387;51.612;7.210;2022-07-31T17:34:55;6.25;;;4.50;;
22439;SDS011;11387;51.612;7.210;2022-07-31T17:37:57;6.00;;;3.85;;
22439;SDS011;11387;51.612;7.210;2022-07-31T17:41:01;5.97;;;3.78;;
22439;SDS011;11387;51.612;7.210;2022-07-31T17:44:04;5.57;;;3.22;;
22439;SDS011;11387;51.612;7.210;2022-07-31T17:47:07;5.82;;;3.20;;
22439;SDS011;11387;51.612;7.210;2022-07-31T17:50:10;5.55;;;3.95;;
22439;SDS011;11387;51.612;7.210;2022-07-31T17:53:13;6.97;;;5.22;;
22439;SDS011;11387;51.612;7.210;2022-07-31T17:56:17;6.43;;;4.13;;
22439;SDS011;11387;51.612;7.210;2022-07-31T17:59:22;10.52;;;4.55;;
22439;SDS011;11387;51.612;7.210;2022-07-31T18:02:24;6.20;;;3.72;;
22439;SDS011;11387;51.612;7.210;2022-07-31T18:05:27;7.30;;;4.43;;
22439;SDS011;11387;51.612;7.210;2022-07-31T18:08:30;17.60;;;11.07;;
22439;SDS011;11387;51.612;7.210;2022-07-31T18:11:34;7.38;;;4.53;;
22439;SDS011;11387;51.612;7.210;2022-07-31T18:14:37;9.35;;;5.80;;
22439;SDS011;11387;51.612;7.210;2022-07-31T18:17:39;9.20;;;5.65;;
22439;SDS011;11387;51.612;7.210;2022-07-31T18:20:42;8.02;;;5.25;;
22439;SDS011;11387;51.612;7.210;2022-07-31T18:23:46;8.13;;;5.78;;
22439;SDS011;11387;51.612;7.210;2022-07-31T18:26:50;8.48;;;5.68;;
22439;SDS011;11387;51.612;7.210;2022-07-31T18:29:54;9.10;;;6.18;;
22439;SDS011;11387;51.612;7.210;2022-07-31T18:32:57;9.80;;;6.38;;
22439;SDS011;11387;51.612;7.210;2022-07-31T18:35:59;11.23;;;6.57;;
22439;SDS011;11387;51.612;7.210;2022-07-31T18:39:04;10.23;;;6.93;;
22439;SDS011;11387;51.612;7.210;2022-07-31T18:42:09;8.85;;;6.18;;
22439;SDS011;11387;51.612;7.210;2022-07-31T18:45:11;10.75;;;6.43;;
22439;SDS011;11387;51.612;7.210;2022-07-31T18:48:14;8.90;;;7.13;;
22439;SDS011;11387;51.612;7.210;2022-07-31T18:51:20;11.68;;;7.45;;